Temp: 4.4°C   Baro: 1017.3mb
  Wind: 0.0mph   Dir: NNW (342°)
  Rain: 0.0mm (0.0mm/hr)
  Solar: 0W/m2  Hum: 83%

Historic data

Bath Spa Weather Station Historical Data
Daily Summary for August 7, 2021 Units:  Metric    English   Both
Daily Weekly Monthly Yearly Custom
  High: Low: Average:
Temperature: 11.9 °C 4.3 °C 8.7 °C
Dew Point: 10.2 °C 3.6 °C 6.6 °C
Humidity: 91% 72% 84%
Wind Speed: 19.5km/h 0km/h 5.8km/h
Wind Gust: 30.6km/h - -
Wind- - WNW
Pressure: 1024.9 hPa 1021.2 hPa -
Precipitation: 0 mm    
Historical Graphs
 
 
Tabular Data for August 7, 2021
Time Temperature Dew Point Pressure Wind Wind Speed Wind Gust Humidity Rainfall Rate (Hourly) solar
00:04 11.5 °C 10.2 °C 1021.2 hPa WNW 8.4 km/h 14.5 km/h 88.4% 0 mm 0 W/m2
00:09 11.4 °C 10.1 °C 1021.2 hPa WNW 9.3 km/h 16.1 km/h 88% 0 mm 0 W/m2
00:14 11.3 °C 9.8 °C 1021.2 hPa WNW 5.5 km/h 11.3 km/h 87% 0 mm 0 W/m2
00:19 11.2 °C 9.6 °C 1021.6 hPa NW 6 km/h 16.1 km/h 87% 0 mm 0 W/m2
00:24 11.1 °C 9.4 °C 1021.6 hPa NW 13.4 km/h 24.1 km/h 86.6% 0 mm 0 W/m2
00:29 10.9 °C 9.1 °C 1021.6 hPa WNW 11.6 km/h 19.3 km/h 85.4% 0 mm 0 W/m2
00:34 10.8 °C 8.9 °C 1021.9 hPa WNW 7.2 km/h 14.5 km/h 85% 0 mm 0 W/m2
00:39 10.7 °C 8.8 °C 1021.9 hPa WNW 10.3 km/h 17.7 km/h 85% 0 mm 0 W/m2
00:44 10.5 °C 8.6 °C 1021.9 hPa NW 7.7 km/h 16.1 km/h 85% 0 mm 0 W/m2
00:49 10.3 °C 8.4 °C 1021.9 hPa NW 7.6 km/h 12.9 km/h 85% 0 mm 0 W/m2
00:54 10.2 °C 8.2 °C 1021.9 hPa NW 5.8 km/h 12.9 km/h 85% 0 mm 0 W/m2
00:59 10 °C 8.1 °C 1022.2 hPa NW 4.7 km/h 9.7 km/h 85% 0 mm 0 W/m2
01:04 9.9 °C 8 °C 1022.2 hPa NW 6 km/h 9.7 km/h 85% 0 mm 0 W/m2
01:09 9.8 °C 7.9 °C 1022.2 hPa NW 4.7 km/h 11.3 km/h 85% 0 mm 0 W/m2
01:14 9.8 °C 7.9 °C 1022.2 hPa NW 4.7 km/h 11.3 km/h 85% 0 mm 0 W/m2
01:19 9.7 °C 7.8 °C 1022.2 hPa NW 7.2 km/h 12.9 km/h 85% 0 mm 0 W/m2
01:24 9.7 °C 7.8 °C 1022.2 hPa NW 5.6 km/h 12.9 km/h 85% 0 mm 0 W/m2
01:28 9.7 °C 7.9 °C 1021.9 hPa NW 8.4 km/h 12.9 km/h 86% 0 mm 0 W/m2
01:34 9.6 °C 7.9 °C 1021.9 hPa NW 6.8 km/h 16.1 km/h 86% 0 mm 0 W/m2
01:39 9.6 °C 7.8 °C 1021.9 hPa NW 8.7 km/h 19.3 km/h 86% 0 mm 0 W/m2
01:44 9.4 °C 7.7 °C 1021.9 hPa WNW 10.3 km/h 19.3 km/h 86% 0 mm 0 W/m2
01:49 9.4 °C 7.7 °C 1022.2 hPa NW 11.1 km/h 19.3 km/h 86% 0 mm 0 W/m2
01:54 9.4 °C 7.7 °C 1022.2 hPa NW 8.5 km/h 19.3 km/h 86% 0 mm 0 W/m2
01:59 9.3 °C 7.6 °C 1022.2 hPa NW 6 km/h 12.9 km/h 86% 0 mm 0 W/m2
02:04 9.3 °C 7.6 °C 1022.2 hPa NW 7.9 km/h 12.9 km/h 86% 0 mm 0 W/m2
02:09 9.3 °C 7.6 °C 1022.6 hPa NW 7.2 km/h 14.5 km/h 86% 0 mm 0 W/m2
02:14 9.3 °C 7.6 °C 1022.6 hPa NW 7.6 km/h 11.3 km/h 86% 0 mm 0 W/m2
02:19 9.3 °C 7.6 °C 1022.6 hPa NW 6 km/h 11.3 km/h 86% 0 mm 0 W/m2
02:24 9.3 °C 7.6 °C 1022.2 hPa NW 6.6 km/h 14.5 km/h 86% 0 mm 0 W/m2
02:29 9.3 °C 7.6 °C 1022.2 hPa NW 8.2 km/h 14.5 km/h 86% 0 mm 0 W/m2
02:34 9.3 °C 7.6 °C 1022.2 hPa WNW 6 km/h 12.9 km/h 86% 0 mm 0 W/m2
02:39 9.3 °C 7.6 °C 1022.2 hPa WNW 6 km/h 11.3 km/h 86% 0 mm 0 W/m2
02:44 9.3 °C 7.6 °C 1022.2 hPa WNW 6.6 km/h 12.9 km/h 86% 0 mm 0 W/m2
02:49 9.3 °C 7.6 °C 1022.2 hPa WNW 4.8 km/h 11.3 km/h 86% 0 mm 0 W/m2
02:54 9.2 °C 7.6 °C 1022.2 hPa WNW 6.4 km/h 12.9 km/h 86% 0 mm 0 W/m2
02:59 9.3 °C 7.6 °C 1022.2 hPa WNW 7.7 km/h 12.9 km/h 86% 0 mm 0 W/m2
03:04 9.3 °C 7.6 °C 1022.2 hPa WNW 5.6 km/h 11.3 km/h 86% 0 mm 0 W/m2
03:09 9.2 °C 7.5 °C 1022.2 hPa WNW 6 km/h 12.9 km/h 86% 0 mm 0 W/m2
03:14 9.2 °C 7.5 °C 1022.2 hPa WNW 5.3 km/h 8 km/h 86% 0 mm 0 W/m2
03:19 9.2 °C 7.5 °C 1022.2 hPa WNW 6.6 km/h 9.7 km/h 86% 0 mm 0 W/m2
03:24 9.2 °C 7.5 °C 1022.2 hPa WNW 5.1 km/h 11.3 km/h 86% 0 mm 0 W/m2
03:29 9.2 °C 7.5 °C 1022.2 hPa WNW 6.4 km/h 11.3 km/h 86% 0 mm 0 W/m2
03:34 9.2 °C 7.5 °C 1022.2 hPa WNW 7.6 km/h 14.5 km/h 86% 0 mm 0 W/m2
03:39 9.2 °C 7.3 °C 1022.2 hPa WNW 5.8 km/h 11.3 km/h 85.2% 0 mm 0 W/m2
03:44 9.2 °C 7.3 °C 1022.6 hPa WNW 4.7 km/h 11.3 km/h 85% 0 mm 0 W/m2
03:49 9.1 °C 7.3 °C 1022.6 hPa WNW 5.6 km/h 14.5 km/h 85.6% 0 mm 0 W/m2
03:54 9.1 °C 7.4 °C 1022.6 hPa WNW 5.6 km/h 12.9 km/h 86% 0 mm 0 W/m2
03:59 9.1 °C 7.2 °C 1022.6 hPa WNW 4.3 km/h 11.3 km/h 85.4% 0 mm 0 W/m2
04:04 8.9 °C 7.3 °C 1022.6 hPa WNW 5 km/h 9.7 km/h 86% 0 mm 0 W/m2
04:09 8.9 °C 7.2 °C 1022.6 hPa WNW 6.6 km/h 14.5 km/h 86% 0 mm 0 W/m2
04:14 8.9 °C 7.2 °C 1022.9 hPa WNW 6.4 km/h 9.7 km/h 86% 0 mm 0 W/m2
04:19 8.9 °C 7.2 °C 1022.9 hPa WNW 4.8 km/h 12.9 km/h 86% 0 mm 0 W/m2
04:24 8.8 °C 7.2 °C 1022.9 hPa WNW 7.6 km/h 12.9 km/h 86% 0 mm 0 W/m2
04:29 8.8 °C 7.2 °C 1022.9 hPa WNW 8 km/h 16.1 km/h 86.5% 0 mm 0 W/m2
04:34 8.8 °C 7.2 °C 1022.9 hPa WNW 6.8 km/h 16.1 km/h 86.8% 0 mm 0 W/m2
04:39 8.7 °C 7 °C 1022.9 hPa WNW 10 km/h 16.1 km/h 86% 0 mm 0 W/m2
04:44 8.7 °C 7 °C 1022.9 hPa WNW 6.6 km/h 11.3 km/h 86% 0 mm 0 W/m2
04:49 8.7 °C 7 °C 1022.9 hPa WNW 7.1 km/h 14.5 km/h 86.2% 0 mm 0 W/m2
04:54 8.6 °C 6.9 °C 1022.6 hPa WNW 6.1 km/h 9.7 km/h 86.2% 0 mm 0 W/m2
04:59 8.4 °C 6.9 °C 1022.6 hPa WNW 4.2 km/h 9.7 km/h 86.8% 0 mm 0 W/m2
05:04 8.3 °C 6.8 °C 1022.9 hPa WNW 2.7 km/h 6.4 km/h 86.8% 0 mm 0 W/m2
05:09 8.3 °C 6.8 °C 1022.6 hPa WNW 2.1 km/h 4.8 km/h 87% 0 mm 0 W/m2
05:14 8.2 °C 6.7 °C 1022.6 hPa WNW 1.9 km/h 4.8 km/h 87% 0 mm 0 W/m2
05:19 8.1 °C 6.6 °C 1022.6 hPa WNW 1.3 km/h 8 km/h 87% 0 mm 0 W/m2
05:24 8 °C 6.5 °C 1022.6 hPa WNW 1.3 km/h 4.8 km/h 87% 0 mm 0 W/m2
05:29 7.8 °C 6.3 °C 1022.6 hPa WNW 1.9 km/h 4.8 km/h 87% 0 mm 0 W/m2
05:34 7.7 °C 6.2 °C 1022.6 hPa WNW 4 km/h 9.7 km/h 87% 0 mm 0 W/m2
05:39 7.7 °C 6.2 °C 1022.6 hPa WNW 0.8 km/h 3.2 km/h 87% 0 mm 0 W/m2
05:44 7.5 °C 6.1 °C 1022.6 hPa WNW 2.1 km/h 3.2 km/h 87.6% 0 mm 0 W/m2
05:49 7.3 °C 5.9 °C 1022.9 hPa WNW 1.1 km/h 3.2 km/h 88% 0 mm 0 W/m2
05:54 7.2 °C 5.8 °C 1022.9 hPa WNW 2.1 km/h 4.8 km/h 88% 0 mm 0 W/m2
05:59 7 °C 5.6 °C 1022.9 hPa WNW 1.9 km/h 3.2 km/h 88% 0 mm 0 W/m2
06:04 7 °C 5.6 °C 1022.9 hPa WNW 3.5 km/h 4.8 km/h 88% 0 mm 0 W/m2
06:09 6.9 °C 5.7 °C 1022.9 hPa WNW 2.1 km/h 3.2 km/h 88.8% 0 mm 0 W/m2
06:14 6.9 °C 5.7 °C 1022.9 hPa WNW 2.4 km/h 4.8 km/h 89% 0 mm 0 W/m2
06:19 6.9 °C 5.7 °C 1022.9 hPa WNW 1.6 km/h 3.2 km/h 89% 0 mm 0 W/m2
06:24 6.9 °C 5.7 °C 1022.9 hPa WNW 3.5 km/h 6.4 km/h 89% 0 mm 0 W/m2
06:29 6.9 °C 5.8 °C 1022.9 hPa WNW 3.1 km/h 6.4 km/h 89.2% 0 mm 0 W/m2
06:34 7 °C 6 °C 1022.9 hPa WNW 2.1 km/h 6.4 km/h 89.8% 0 mm 0 W/m2
06:39 7.1 °C 6.1 °C 1022.9 hPa Calm   4.8 km/h 90% 0 mm 0 W/m2
06:44 7.2 °C 6.2 °C 1023.2 hPa WNW 0.3 km/h 4.8 km/h 90% 0 mm 0 W/m2
06:49 7.2 °C 6.2 °C 1023.2 hPa WNW 2.9 km/h 11.3 km/h 90% 0 mm 0 W/m2
06:54 7.2 °C 6.2 °C 1023.2 hPa WNW 4.2 km/h 8 km/h 90% 0 mm 0 W/m2
06:59 7.2 °C 6.2 °C 1023.2 hPa WNW 5.6 km/h 9.7 km/h 90% 0 mm 0 W/m2
07:04 7.4 °C 6.4 °C 1023.2 hPa WNW 6.4 km/h 12.9 km/h 90% 0 mm 0 W/m2
07:09 7.6 °C 6.6 °C 1023.2 hPa WNW 3.2 km/h 11.3 km/h 90% 0 mm 0 W/m2
07:14 7.7 °C 6.5 °C 1023.2 hPa WNW 3.2 km/h 9.7 km/h 89.2% 0 mm 0 W/m2
07:19 7.7 °C 6.5 °C 1023.6 hPa WNW 0.3 km/h 4.8 km/h 89% 0 mm 0 W/m2
07:24 7.7 °C 6.4 °C 1023.6 hPa Calm   1.6 km/h 89% 0 mm 5 W/m2
07:29 7.8 °C 6.6 °C 1023.6 hPa WNW 0.6 km/h 3.2 km/h 89.2% 0 mm 9 W/m2
07:34 8 °C 6.8 °C 1023.6 hPa WNW 2.1 km/h 6.4 km/h 89.2% 0 mm 11 W/m2
07:39 7.8 °C 6.7 °C 1023.6 hPa WNW 1.9 km/h 6.4 km/h 89% 0 mm 12 W/m2
07:44 7.8 °C 6.6 °C 1023.6 hPa WNW 3.4 km/h 8 km/h 89% 0 mm 18 W/m2
07:49 7.9 °C 6.7 °C 1023.9 hPa WNW 2.6 km/h 6.4 km/h 89% 0 mm 28 W/m2
07:54 8.1 °C 6.8 °C 1023.9 hPa WNW 1.9 km/h 4.8 km/h 89% 0 mm 30 W/m2
07:59 8.3 °C 7.1 °C 1023.9 hPa WNW 2.6 km/h 8 km/h 89% 0 mm 33 W/m2
08:04 8.3 °C 7.1 °C 1023.9 hPa WNW 1.4 km/h 8 km/h 88.4% 0 mm 35 W/m2
08:09 8.4 °C 7 °C 1023.9 hPa WNW 1.3 km/h 4.8 km/h 88% 0 mm 37 W/m2
08:14 8.3 °C 6.9 °C 1023.9 hPa WNW 1.1 km/h 4.8 km/h 88% 0 mm 37 W/m2
08:19 8.3 °C 6.9 °C 1023.9 hPa WNW 1.8 km/h 4.8 km/h 88% 0 mm 35 W/m2
08:24 8.3 °C 6.9 °C 1023.9 hPa WNW 2.3 km/h 4.8 km/h 87.6% 0 mm 47 W/m2
08:29 8.3 °C 6.8 °C 1023.9 hPa WNW 2.7 km/h 8 km/h 87% 0 mm 56 W/m2
08:34 8.4 °C 6.9 °C 1023.9 hPa WNW 2.1 km/h 4.8 km/h 87% 0 mm 72 W/m2
08:39 8.5 °C 7 °C 1023.9 hPa WNW 2.4 km/h 6.4 km/h 87% 0 mm 83 W/m2
08:44 8.6 °C 6.9 °C 1023.9 hPa WNW 2.7 km/h 9.7 km/h 86.2% 0 mm 84 W/m2
08:49 8.8 °C 7.1 °C 1023.9 hPa WNW 3.5 km/h 6.4 km/h 86% 0 mm 93 W/m2
08:54 8.9 °C 7.2 °C 1023.9 hPa WNW 2.7 km/h 6.4 km/h 86% 0 mm 83 W/m2
08:59 8.9 °C 7.2 °C 1024.3 hPa WNW 3.2 km/h 9.7 km/h 86% 0 mm 77 W/m2
09:04 9.1 °C 7.3 °C 1024.3 hPa WNW 1.6 km/h 6.4 km/h 86% 0 mm 81 W/m2
09:09 9.1 °C 7.3 °C 1024.6 hPa WNW 2.9 km/h 8 km/h 86% 0 mm 81 W/m2
09:14 9.1 °C 7.2 °C 1024.6 hPa WNW 4 km/h 14.5 km/h 85.2% 0 mm 95 W/m2
09:19 9.1 °C 7.2 °C 1024.6 hPa WNW 7.7 km/h 14.5 km/h 85% 0 mm 104 W/m2
09:24 9.1 °C 7.2 °C 1024.6 hPa WNW 6 km/h 12.9 km/h 85% 0 mm 107 W/m2
09:29 9.2 °C 7.2 °C 1024.6 hPa WNW 6.8 km/h 12.9 km/h 84.8% 0 mm 128 W/m2
09:34 9.3 °C 7.4 °C 1024.6 hPa WNW 6.9 km/h 11.3 km/h 85% 0 mm 135 W/m2
09:39 9.3 °C 7.2 °C 1024.6 hPa WNW 6.8 km/h 12.9 km/h 84% 0 mm 125 W/m2
09:44 9.3 °C 7.3 °C 1024.6 hPa WNW 9.3 km/h 14.5 km/h 84% 0 mm 127 W/m2
09:49 9.3 °C 7.3 °C 1024.6 hPa WNW 8.5 km/h 17.7 km/h 84% 0 mm 193 W/m2
09:54 9.5 °C 7.4 °C 1024.3 hPa WNW 8.7 km/h 19.3 km/h 84% 0 mm 193 W/m2
09:59 9.7 °C 7.6 °C 1024.6 hPa WNW 8.4 km/h 17.7 km/h 84% 0 mm 206 W/m2
10:04 9.9 °C 7.8 °C 1024.6 hPa WNW 3.7 km/h 11.3 km/h 84% 0 mm 204 W/m2
10:09 10.1 °C 7.8 °C 1024.6 hPa WNW 5.6 km/h 14.5 km/h 83.2% 0 mm 223 W/m2
10:14 10.2 °C 7.8 °C 1024.6 hPa WNW 7.6 km/h 14.5 km/h 82.4% 0 mm 207 W/m2
10:19 10.1 °C 7.7 °C 1024.6 hPa WNW 13.5 km/h 20.9 km/h 82% 0 mm 251 W/m2
10:24 10.2 °C 7.6 °C 1024.6 hPa WNW 7.6 km/h 17.7 km/h 81% 0 mm 258 W/m2
10:29 10.3 °C 7.7 °C 1024.6 hPa WNW 10.9 km/h 17.7 km/h 81% 0 mm 234 W/m2
10:34 10.3 °C 7.7 °C 1024.6 hPa WNW 9.8 km/h 17.7 km/h 81% 0 mm 202 W/m2
10:39 10.3 °C 7.7 °C 1024.6 hPa WNW 8.2 km/h 17.7 km/h 81% 0 mm 229 W/m2
10:44 10.4 °C 7.7 °C 1024.6 hPa WNW 15.4 km/h 20.9 km/h 80.4% 0 mm 232 W/m2
10:49 10.3 °C 7.5 °C 1024.6 hPa WNW 17.2 km/h 27.4 km/h 80% 0 mm 267 W/m2
10:54 10.4 °C 7.6 °C 1024.6 hPa WNW 11.3 km/h 27.4 km/h 80% 0 mm 269 W/m2
10:59 10.6 °C 7.8 °C 1024.6 hPa WNW 13 km/h 22.5 km/h 80% 0 mm 308 W/m2
11:04 10.7 °C 7.8 °C 1024.6 hPa WNW 9.2 km/h 22.5 km/h 79.8% 0 mm 299 W/m2
11:09 10.7 °C 7.7 °C 1024.6 hPa WNW 13.5 km/h 27.4 km/h 79% 0 mm 274 W/m2
11:14 10.7 °C 7.7 °C 1024.6 hPa WNW 12.6 km/h 20.9 km/h 79% 0 mm 255 W/m2
11:19 10.7 °C 7.7 °C 1024.6 hPa WNW 11.9 km/h 20.9 km/h 79% 0 mm 262 W/m2
11:24 10.7 °C 7.5 °C 1024.3 hPa WNW 13.2 km/h 22.5 km/h 78% 0 mm 265 W/m2
11:29 10.7 °C 7.6 °C 1024.3 hPa WNW 10.9 km/h 22.5 km/h 78% 0 mm 279 W/m2
11:33 10.8 °C 7.7 °C 1024.3 hPa WNW 11.3 km/h 22.5 km/h 78% 0 mm 297 W/m2
11:39 10.9 °C 7.6 °C 1024.3 hPa WNW 14.2 km/h 25.7 km/h 77.4% 0 mm 279 W/m2
11:44 11 °C 7.7 °C 1024.3 hPa WNW 9.7 km/h 20.9 km/h 77.4% 0 mm 308 W/m2
11:49 11 °C 7.6 °C 1024.3 hPa West 13.2 km/h 29 km/h 77% 0 mm 278 W/m2
11:54 11.1 °C 7.7 °C 1024.3 hPa WNW 11.3 km/h 29 km/h 77% 0 mm 278 W/m2
11:59 11.1 °C 7.7 °C 1024.3 hPa WNW 10 km/h 19.3 km/h 77% 0 mm 323 W/m2
12:04 11.3 °C 7.9 °C 1023.9 hPa WNW 11.3 km/h 20.9 km/h 77% 0 mm 311 W/m2
12:09 11.4 °C 8 °C 1023.9 hPa WNW 9.3 km/h 19.3 km/h 77% 0 mm 315 W/m2
12:14 11.4 °C 7.9 °C 1023.9 hPa WNW 13.2 km/h 24.1 km/h 76.4% 0 mm 346 W/m2
12:19 11.5 °C 7.8 °C 1023.9 hPa WNW 10.1 km/h 24.1 km/h 75.4% 0 mm 348 W/m2
12:24 11.7 °C 7.8 °C 1023.9 hPa WNW 11.1 km/h 22.5 km/h 75% 0 mm 322 W/m2
12:29 11.6 °C 7.6 °C 1023.9 hPa NW 11.4 km/h 29 km/h 74.2% 0 mm 301 W/m2
12:34 11.6 °C 7.7 °C 1023.9 hPa WNW 12.7 km/h 27.4 km/h 74.4% 0 mm 299 W/m2
12:39 11.4 °C 7.4 °C 1023.9 hPa WNW 14.5 km/h 27.4 km/h 74% 0 mm 246 W/m2
12:44 11.4 °C 7.6 °C 1023.9 hPa WNW 11.9 km/h 20.9 km/h 75% 0 mm 274 W/m2
12:49 11.4 °C 7.5 °C 1023.9 hPa WNW 10.5 km/h 20.9 km/h 74.4% 0 mm 260 W/m2
12:54 11.5 °C 7.6 °C 1023.9 hPa NW 10.9 km/h 20.9 km/h 74.6% 0 mm 267 W/m2
12:59 11.4 °C 7.5 °C 1023.9 hPa WNW 7.9 km/h 17.7 km/h 74.4% 0 mm 278 W/m2
13:04 11.6 °C 7.7 °C 1023.9 hPa WNW 13.5 km/h 20.9 km/h 74.4% 0 mm 272 W/m2
13:09 11.6 °C 7.6 °C 1023.9 hPa NW 16.7 km/h 27.4 km/h 74% 0 mm 283 W/m2
13:14 11.6 °C 7.6 °C 1023.6 hPa NW 9.7 km/h 27.4 km/h 74% 0 mm 301 W/m2
13:19 11.6 °C 7.6 °C 1023.6 hPa WNW 19.2 km/h 25.7 km/h 74% 0 mm 299 W/m2
13:24 11.6 °C 7.4 °C 1023.6 hPa NW 17.7 km/h 30.6 km/h 73.3% 0 mm 281 W/m2
13:29 11.7 °C 7.4 °C 1023.6 hPa NW 19.5 km/h 25.7 km/h 73% 0 mm 264 W/m2
13:34 11.7 °C 7.4 °C 1023.6 hPa NW 14.5 km/h 27.4 km/h 73% 0 mm 251 W/m2
13:39 11.7 °C 7.5 °C 1023.6 hPa West 14.6 km/h 29 km/h 73% 0 mm 278 W/m2
13:44 11.7 °C 7.5 °C 1023.6 hPa WNW 15.3 km/h 29 km/h 73% 0 mm 274 W/m2
13:49 11.8 °C 7.5 °C 1023.2 hPa WNW 14.3 km/h 24.1 km/h 72.6% 0 mm 251 W/m2
13:54 11.8 °C 7.4 °C 1023.2 hPa NW 10.8 km/h 24.1 km/h 72% 0 mm 257 W/m2
13:59 11.9 °C 7.5 °C 1023.2 hPa WNW 10.3 km/h 19.3 km/h 72% 0 mm 229 W/m2
14:04 11.9 °C 7.5 °C 1023.6 hPa NW 9.7 km/h 25.7 km/h 72% 0 mm 188 W/m2
14:09 11.7 °C 7.3 °C 1023.2 hPa WNW 13.5 km/h 24.1 km/h 72% 0 mm 183 W/m2
14:14 11.7 °C 7.3 °C 1023.2 hPa WNW 9 km/h 24.1 km/h 72.2% 0 mm 178 W/m2
14:19 11.7 °C 7.3 °C 1023.2 hPa WNW 12.6 km/h 29 km/h 72.4% 0 mm 174 W/m2
14:24 11.6 °C 7.2 °C 1023.2 hPa WNW 11.3 km/h 20.9 km/h 72% 0 mm 146 W/m2
14:29 11.6 °C 7.3 °C 1023.2 hPa NW 7.7 km/h 22.5 km/h 72.6% 0 mm 141 W/m2
14:34 11.6 °C 7.4 °C 1023.2 hPa NW 7.2 km/h 20.9 km/h 73% 0 mm 134 W/m2
14:39 11.6 °C 7.3 °C 1023.2 hPa NW 10.8 km/h 20.9 km/h 73% 0 mm 118 W/m2
14:44 11.4 °C 7.2 °C 1023.2 hPa NW 11.6 km/h 19.3 km/h 73% 0 mm 107 W/m2
14:49 11.4 °C 7.3 °C 1023.2 hPa WNW 15.9 km/h 22.5 km/h 73.4% 0 mm 100 W/m2
14:54 11.3 °C 7.3 °C 1022.9 hPa WNW 10.3 km/h 24.1 km/h 74% 0 mm 97 W/m2
14:59 11.3 °C 7.3 °C 1022.9 hPa WNW 10.6 km/h 20.9 km/h 74% 0 mm 97 W/m2
15:04 11.2 °C 7.3 °C 1022.9 hPa WNW 8 km/h 12.9 km/h 74.4% 0 mm 97 W/m2
15:09 11.1 °C 7.3 °C 1022.9 hPa WNW 10 km/h 17.7 km/h 75% 0 mm 91 W/m2
15:14 11.1 °C 7.2 °C 1022.9 hPa WNW 7.4 km/h 17.7 km/h 74.8% 0 mm 84 W/m2
15:19 11.1 °C 7.3 °C 1022.9 hPa WNW 6.1 km/h 14.5 km/h 75% 0 mm 77 W/m2
15:24 10.9 °C 7.2 °C 1022.9 hPa West 9 km/h 14.5 km/h 75% 0 mm 76 W/m2
15:29 10.8 °C 7.3 °C 1023.2 hPa West 8.4 km/h 14.5 km/h 76% 0 mm 69 W/m2
15:34 10.8 °C 7.2 °C 1023.2 hPa West 14.5 km/h 19.3 km/h 76% 0 mm 62 W/m2
15:39 10.7 °C 7.1 °C 1022.9 hPa WNW 10.1 km/h 19.3 km/h 76% 0 mm 58 W/m2
15:44 10.7 °C 7.1 °C 1022.9 hPa WNW 10.3 km/h 19.3 km/h 76% 0 mm 51 W/m2
15:49 10.6 °C 7 °C 1023.2 hPa WNW 4.5 km/h 17.7 km/h 76% 0 mm 42 W/m2
15:54 10.6 °C 7.1 °C 1023.2 hPa WNW 4.5 km/h 16.1 km/h 76.4% 0 mm 37 W/m2
15:59 10.5 °C 7.1 °C 1023.6 hPa WNW 1.6 km/h 16.1 km/h 77% 0 mm 32 W/m2
16:04 10.4 °C 7 °C 1023.6 hPa WNW 5.1 km/h 11.3 km/h 77% 0 mm 26 W/m2
16:09 10.3 °C 6.9 °C 1023.2 hPa WNW 7.9 km/h 16.1 km/h 77% 0 mm 23 W/m2
16:14 10.2 °C 6.9 °C 1023.2 hPa NW 11.1 km/h 14.5 km/h 77.8% 0 mm 16 W/m2
16:19 10.1 °C 6.9 °C 1023.2 hPa NW 9.2 km/h 14.5 km/h 78% 0 mm 14 W/m2
16:24 9.9 °C 6.7 °C 1023.6 hPa NW 7.1 km/h 14.5 km/h 78% 0 mm 11 W/m2
16:29 9.9 °C 6.7 °C 1023.6 hPa NW 6.6 km/h 14.5 km/h 78% 0 mm 7 W/m2
16:34 9.8 °C 6.6 °C 1023.6 hPa NW 6 km/h 14.5 km/h 78% 0 mm 0 W/m2
16:39 9.8 °C 6.6 °C 1023.6 hPa NW 4 km/h 9.7 km/h 78% 0 mm 0 W/m2
16:44 9.7 °C 6.6 °C 1023.6 hPa NW 5.1 km/h 8 km/h 78% 0 mm 0 W/m2
16:49 9.7 °C 6.4 °C 1023.6 hPa NW 4.5 km/h 6.4 km/h 78% 0 mm 0 W/m2
16:54 9.6 °C 6.5 °C 1023.9 hPa NW 3.4 km/h 8 km/h 78.6% 0 mm 0 W/m2
16:59 9.5 °C 6.5 °C 1023.9 hPa NW 1.3 km/h 6.4 km/h 79% 0 mm 0 W/m2
17:04 9.4 °C 6.4 °C 1023.9 hPa NW 1.6 km/h 4.8 km/h 79% 0 mm 0 W/m2
17:06 9.4 °C 6.4 °C 1023.9 hPa NW 0.8 km/h 3.2 km/h 79% 0 mm 0 W/m2
17:14 9.2 °C 6.2 °C 1023.9 hPa NW 3.2 km/h 4.8 km/h 79% 0 mm 0 W/m2
17:19 8.8 °C 5.9 °C 1023.9 hPa NW 4.3 km/h 6.4 km/h 79.4% 0 mm 0 W/m2
17:24 8.6 °C 5.8 °C 1023.6 hPa NW 3.4 km/h 9.7 km/h 80% 0 mm 0 W/m2
17:28 8.6 °C 5.8 °C 1023.6 hPa NW 3.2 km/h 8 km/h 80% 0 mm 0 W/m2
17:34 8.6 °C 5.8 °C 1023.9 hPa NW 1.1 km/h 4.8 km/h 80% 0 mm 0 W/m2
17:39 8.6 °C 5.8 °C 1023.9 hPa NW 0.3 km/h 3.2 km/h 80% 0 mm 0 W/m2
17:44 8.4 °C 5.6 °C 1023.9 hPa Calm     80.2% 0 mm 0 W/m2
17:49 8.2 °C 5.5 °C 1023.9 hPa Calm     80.6% 0 mm 0 W/m2
17:54 7.9 °C 5.3 °C 1023.9 hPa Calm     81.2% 0 mm 0 W/m2
17:59 7.7 °C 5.2 °C 1023.6 hPa Calm     82% 0 mm 0 W/m2
18:04 7.6 °C 5.3 °C 1023.6 hPa Calm     82.8% 0 mm 0 W/m2
18:09 7.6 °C 5.4 °C 1023.6 hPa Calm     83% 0 mm 0 W/m2
18:14 7.4 °C 5.3 °C 1023.9 hPa NW 3.2 km/h 6.4 km/h 83.4% 0 mm 0 W/m2
18:19 7.4 °C 5.4 °C 1023.9 hPa NW 3.4 km/h 6.4 km/h 84% 0 mm 0 W/m2
18:23 7.3 °C 5.3 °C 1023.9 hPa NW 3.2 km/h 4.8 km/h 84% 0 mm 0 W/m2
18:29 7.2 °C 5.2 °C 1023.9 hPa Calm   3.2 km/h 84% 0 mm 0 W/m2
18:34 7.2 °C 5.2 °C 1023.9 hPa Calm     84.2% 0 mm 0 W/m2
18:39 7 °C 5.1 °C 1023.6 hPa Calm   3.2 km/h 84.8% 0 mm 0 W/m2
18:44 6.9 °C 5.1 °C 1023.6 hPa Calm     85% 0 mm 0 W/m2
18:49 6.9 °C 5.1 °C 1023.9 hPa NW 1 km/h 3.2 km/h 85.2% 0 mm 0 W/m2
18:54 6.8 °C 5 °C 1023.9 hPa NW 2.6 km/h 6.4 km/h 85.3% 0 mm 0 W/m2
18:59 6.8 °C 5.1 °C 1023.9 hPa NW 0.3 km/h 6.4 km/h 85.8% 0 mm 0 W/m2
19:04 6.9 °C 5.2 °C 1023.9 hPa NW 2.6 km/h 6.4 km/h 86% 0 mm 0 W/m2
19:09 7.1 °C 5.3 °C 1023.9 hPa NW 5.1 km/h 11.3 km/h 86% 0 mm 0 W/m2
19:14 7.3 °C 5.6 °C 1023.9 hPa NW 3.9 km/h 11.3 km/h 86% 0 mm 0 W/m2
19:19 7.4 °C 5.7 °C 1024.3 hPa NW 1 km/h 8 km/h 85.6% 0 mm 0 W/m2
19:24 7.6 °C 5.7 °C 1024.3 hPa NW 2.6 km/h 4.8 km/h 85% 0 mm 0 W/m2
19:29 7.4 °C 5.5 °C 1024.3 hPa NW 0.3 km/h 4.8 km/h 84.6% 0 mm 0 W/m2
19:34 7.3 °C 5.4 °C 1024.3 hPa Calm     85% 0 mm 0 W/m2
19:39 7.3 °C 5.3 °C 1024.6 hPa Calm     84.4% 0 mm 0 W/m2
19:43 7.1 °C 5.2 °C 1024.6 hPa NW 1.6 km/h 3.2 km/h 85% 0 mm 0 W/m2
19:49 6.8 °C 4.9 °C 1024.3 hPa NW 4 km/h 6.4 km/h 85% 0 mm 0 W/m2
19:54 6.7 °C 4.8 °C 1024.6 hPa NW 2.6 km/h 6.4 km/h 85% 0 mm 0 W/m2
19:59 6.6 °C 4.8 °C 1024.6 hPa NW 2.6 km/h 3.2 km/h 85.6% 0 mm 0 W/m2
20:04 6.3 °C 4.7 °C 1024.6 hPa NW 5.8 km/h 8 km/h 86% 0 mm 0 W/m2
20:08 6.2 °C 4.6 °C 1024.6 hPa NW 4 km/h 8 km/h 86% 0 mm 0 W/m2
20:14 6.1 °C 4.5 °C 1024.9 hPa NW 0.6 km/h 6.4 km/h 86.4% 0 mm 0 W/m2
20:19 6.1 °C 4.6 °C 1024.9 hPa NW 3.2 km/h 4.8 km/h 87% 0 mm 0 W/m2
20:24 6.1 °C 4.6 °C 1024.9 hPa NW 5.1 km/h 6.4 km/h 87% 0 mm 0 W/m2
20:29 6 °C 4.5 °C 1024.6 hPa NW 5.8 km/h 8 km/h 87% 0 mm 0 W/m2
20:34 6.1 °C 4.6 °C 1024.6 hPa NW 3.9 km/h 8 km/h 87% 0 mm 0 W/m2
20:39 5.9 °C 4.4 °C 1024.6 hPa NW 2.1 km/h 4.8 km/h 87% 0 mm 0 W/m2
20:44 5.7 °C 4.3 °C 1024.6 hPa NW 4 km/h 6.4 km/h 87.6% 0 mm 0 W/m2
20:49 5.7 °C 4.4 °C 1024.6 hPa NW 5.3 km/h 8 km/h 88% 0 mm 0 W/m2
20:54 5.8 °C 4.5 °C 1024.6 hPa NW 4.8 km/h 8 km/h 88% 0 mm 0 W/m2
20:59 5.7 °C 4.3 °C 1024.9 hPa NW 2.7 km/h 4.8 km/h 88% 0 mm 0 W/m2
21:04 5.6 °C 4.3 °C 1024.9 hPa NW 4.7 km/h 8 km/h 88% 0 mm 0 W/m2
21:09 5.6 °C 4.3 °C 1024.6 hPa NW 6.3 km/h 8 km/h 88% 0 mm 0 W/m2
21:14 5.6 °C 4.3 °C 1024.6 hPa NW 5.8 km/h 9.7 km/h 88.4% 0 mm 0 W/m2
21:19 5.7 °C 4.4 °C 1024.9 hPa NW 4 km/h 8 km/h 89% 0 mm 0 W/m2
21:24 5.8 °C 4.6 °C 1024.9 hPa NW 1.9 km/h 6.4 km/h 89% 0 mm 0 W/m2
21:28 5.8 °C 4.6 °C 1024.9 hPa Calm   1.6 km/h 89% 0 mm 0 W/m2
21:33 5.7 °C 4.5 °C 1024.9 hPa Calm     88.8% 0 mm 0 W/m2
21:39 5.6 °C 4.3 °C 1024.9 hPa Calm     88.6% 0 mm 0 W/m2
21:44 5.4 °C 4.1 °C 1024.9 hPa Calm     88.2% 0 mm 0 W/m2
21:49 5.3 °C 4.2 °C 1024.9 hPa Calm     89% 0 mm 0 W/m2
21:54 5.3 °C 4.1 °C 1024.9 hPa NW 4.7 km/h 8 km/h 89% 0 mm 0 W/m2
21:59 5.3 °C 4.2 °C 1024.9 hPa NW 3.2 km/h 8 km/h 89% 0 mm 0 W/m2
22:04 5.3 °C 4.1 °C 1024.9 hPa NW 4.5 km/h 8 km/h 89% 0 mm 0 W/m2
22:09 5.4 °C 4.2 °C 1024.9 hPa NW 1.3 km/h 6.4 km/h 89% 0 mm 0 W/m2
22:14 5.4 °C 4.2 °C 1024.9 hPa NW 2.9 km/h 6.4 km/h 89% 0 mm 0 W/m2
22:19 5.3 °C 4.1 °C 1024.9 hPa NW 2.4 km/h 6.4 km/h 89% 0 mm 0 W/m2
22:24 5.3 °C 4.1 °C 1024.9 hPa NW 2.1 km/h 4.8 km/h 89% 0 mm 0 W/m2
22:29 5.2 °C 4.1 °C 1024.9 hPa NW 2.1 km/h 3.2 km/h 89.4% 0 mm 0 W/m2
22:34 5.5 °C 4.5 °C 1024.9 hPa NW 2.6 km/h 4.8 km/h 90% 0 mm 0 W/m2
22:39 5.8 °C 4.8 °C 1024.9 hPa NW 0.8 km/h 3.2 km/h 90% 0 mm 0 W/m2
22:44 5.5 °C 4.5 °C 1024.9 hPa NW 1 km/h 4.8 km/h 90% 0 mm 0 W/m2
22:49 5.3 °C 4.3 °C 1024.9 hPa NW 1.6 km/h 4.8 km/h 90% 0 mm 0 W/m2
22:54 5.3 °C 4.3 °C 1024.9 hPa NW 1.4 km/h 3.2 km/h 90% 0 mm 0 W/m2
22:59 5.3 °C 4.3 °C 1024.9 hPa NW 1.3 km/h 3.2 km/h 90% 0 mm 0 W/m2
23:04 5.2 °C 4.2 °C 1024.9 hPa NW 1.9 km/h 4.8 km/h 90% 0 mm 0 W/m2
23:09 5 °C 4 °C 1024.9 hPa NW 2.4 km/h 4.8 km/h 90% 0 mm 0 W/m2
23:14 4.8 °C 3.8 °C 1024.9 hPa NW 1.9 km/h 3.2 km/h 90% 0 mm 0 W/m2
23:19 4.8 °C 3.8 °C 1024.9 hPa NW 3.2 km/h 4.8 km/h 90% 0 mm 0 W/m2
23:24 4.8 °C 3.8 °C 1024.9 hPa NW 2.1 km/h 4.8 km/h 90% 0 mm 0 W/m2
23:29 4.8 °C 3.8 °C 1024.9 hPa Calm   3.2 km/h 90% 0 mm 0 W/m2
23:34 4.7 °C 3.7 °C 1024.9 hPa NW 1.9 km/h 4.8 km/h 90% 0 mm 0 W/m2
23:39 4.6 °C 3.6 °C 1024.9 hPa NW 2.1 km/h 6.4 km/h 90% 0 mm 0 W/m2
23:44 4.6 °C 3.8 °C 1024.9 hPa NW 1.4 km/h 6.4 km/h 91% 0 mm 0 W/m2
23:49 4.6 °C 3.8 °C 1024.9 hPa Calm   1.6 km/h 91% 0 mm 0 W/m2
23:54 4.4 °C 3.7 °C 1024.9 hPa Calm     91% 0 mm 0 W/m2
23:59 4.3 °C 3.6 °C 1024.9 hPa Calm     91% 0 mm 0 W/m2
Bath Spa Weather
Compliments of Weather Underground - 2 mb